createdAt,value
2018-07-14T00:00:54.554Z,24.60
2018-07-14T00:03:23.386Z,17.60
2018-07-14T00:05:53.105Z,19.40
2018-07-14T00:08:20.720Z,21.00
2018-07-14T00:10:48.577Z,20.80
2018-07-14T00:13:16.556Z,24.00
2018-07-14T00:15:45.259Z,20.60
2018-07-14T00:18:14.080Z,20.60
2018-07-14T00:20:41.981Z,21.80
2018-07-14T00:23:10.146Z,24.00
2018-07-14T00:25:44.343Z,19.60
2018-07-14T00:28:12.368Z,24.00
2018-07-14T00:30:40.008Z,18.40
2018-07-14T00:33:07.675Z,21.40
2018-07-14T00:35:35.587Z,20.20
2018-07-14T00:38:04.065Z,22.40
2018-07-14T00:40:33.021Z,19.80
2018-07-14T00:43:00.930Z,16.80
2018-07-14T00:45:28.567Z,23.20
2018-07-14T00:47:56.239Z,27.20
2018-07-14T00:50:25.738Z,16.00
2018-07-14T00:52:53.409Z,26.60
2018-07-14T00:55:21.035Z,21.60
2018-07-14T00:57:48.643Z,23.00
2018-07-14T01:00:16.675Z,18.60
2018-07-14T01:02:44.743Z,23.40
2018-07-14T01:05:12.434Z,25.00
2018-07-14T01:07:40.346Z,27.20
2018-07-14T01:10:08.032Z,30.40
2018-07-14T01:12:35.678Z,28.40
2018-07-14T01:15:03.704Z,12.60
2018-07-14T01:17:32.475Z,23.80
2018-07-14T01:20:00.166Z,27.60
2018-07-14T01:22:28.900Z,22.80
2018-07-14T01:24:56.833Z,22.40
2018-07-14T01:27:24.432Z,22.40
2018-07-14T01:29:52.098Z,19.80
2018-07-14T01:32:20.028Z,22.00
2018-07-14T01:34:48.647Z,26.80
2018-07-14T01:37:16.313Z,22.00
2018-07-14T01:39:43.943Z,23.00
2018-07-14T01:42:11.861Z,25.80
2018-07-14T01:44:39.537Z,23.20
2018-07-14T01:47:07.183Z,21.80
2018-07-14T01:49:35.078Z,28.20
2018-07-14T01:52:02.739Z,23.60
2018-07-14T01:54:31.155Z,24.20
2018-07-14T01:56:59.089Z,26.60
2018-07-14T01:59:26.698Z,22.20
2018-07-14T02:01:54.339Z,28.80
2018-07-14T02:04:22.896Z,24.80
2018-07-14T02:06:50.552Z,26.60
2018-07-14T02:09:18.191Z,26.60
2018-07-14T02:11:46.116Z,29.20
2018-07-14T02:14:13.764Z,26.20
2018-07-14T02:16:41.384Z,26.40
2018-07-14T02:19:09.012Z,30.80
2018-07-14T02:21:36.903Z,27.20
2018-07-14T02:24:04.571Z,26.80
2018-07-14T02:26:32.219Z,23.80
2018-07-14T02:28:59.864Z,28.20
2018-07-14T02:31:27.975Z,28.00
2018-07-14T02:33:55.599Z,25.40
2018-07-14T02:36:23.232Z,30.60
2018-07-14T02:38:50.945Z,27.00
2018-07-14T02:41:18.859Z,16.80
2018-07-14T02:43:46.688Z,24.60
2018-07-14T02:46:14.366Z,27.00
2018-07-14T02:48:42.003Z,24.60
2018-07-14T02:51:11.641Z,22.40
2018-07-14T02:53:40.357Z,21.20
2018-07-14T02:56:07.958Z,32.40
2018-07-14T02:58:35.596Z,28.00
2018-07-14T03:01:03.528Z,24.40
2018-07-14T03:03:31.680Z,25.20
2018-07-14T03:05:59.300Z,27.20
2018-07-14T03:08:27.206Z,26.60
2018-07-14T03:10:54.853Z,28.00
2018-07-14T03:13:22.530Z,21.60
2018-07-14T03:15:50.933Z,23.80
2018-07-14T03:18:18.856Z,24.00
2018-07-14T03:20:46.503Z,21.80
2018-07-14T03:23:14.185Z,19.40
2018-07-14T03:25:41.794Z,21.20
2018-07-14T03:28:09.701Z,22.80
2018-07-14T03:30:37.308Z,19.00
2018-07-14T03:33:05.022Z,23.80
2018-07-14T03:35:32.675Z,23.60
2018-07-14T03:38:00.636Z,24.60
2018-07-14T03:40:28.308Z,21.60
2018-07-14T03:42:55.953Z,25.20
2018-07-14T03:45:23.908Z,27.60
2018-07-14T03:47:52.339Z,23.60
2018-07-14T03:50:20.227Z,22.40
2018-07-14T03:52:47.861Z,20.80
2018-07-14T03:55:15.794Z,23.20
2018-07-14T03:57:43.387Z,26.20
2018-07-14T04:00:10.982Z,22.60
2018-07-14T04:02:38.602Z,25.60
2018-07-14T04:05:06.273Z,24.80
2018-07-14T04:07:34.119Z,21.20
2018-07-14T04:10:01.757Z,22.00
2018-07-14T04:12:29.648Z,24.20
2018-07-14T04:14:57.303Z,22.80
2018-07-14T04:17:24.916Z,15.40
2018-07-14T04:19:52.850Z,23.60
2018-07-14T04:22:20.451Z,24.40
2018-07-14T04:24:48.100Z,26.60
2018-07-14T04:27:15.768Z,25.80
2018-07-14T04:29:43.671Z,26.60
2018-07-14T04:32:11.295Z,26.20
2018-07-14T04:34:38.908Z,24.60
2018-07-14T04:37:06.530Z,26.20
2018-07-14T04:39:34.459Z,25.00
2018-07-14T04:42:02.094Z,27.40
2018-07-14T04:44:30.691Z,24.20
2018-07-14T04:46:58.578Z,27.60
2018-07-14T04:49:26.313Z,29.40
2018-07-14T04:51:53.937Z,31.60
2018-07-14T04:54:21.628Z,27.40
2018-07-14T04:56:49.499Z,30.00
2018-07-14T04:59:17.110Z,27.20
2018-07-14T05:01:44.728Z,34.80
2018-07-14T05:04:12.361Z,28.00
2018-07-14T05:06:39.982Z,24.40
2018-07-14T05:09:07.982Z,31.80
2018-07-14T05:11:35.978Z,28.80
2018-07-14T05:14:03.658Z,24.40
2018-07-14T05:16:31.285Z,29.00
2018-07-14T05:18:59.190Z,28.00
2018-07-14T05:21:26.887Z,23.20
2018-07-14T05:23:54.492Z,29.20
2018-07-14T05:26:23.349Z,29.80
2018-07-14T05:28:50.982Z,34.00
2018-07-14T05:31:18.616Z,25.80
2018-07-14T05:33:46.539Z,28.20
2018-07-14T05:36:14.179Z,24.60
2018-07-14T05:38:41.789Z,31.20
2018-07-14T05:41:09.725Z,30.40
2018-07-14T05:43:37.334Z,29.20
2018-07-14T05:46:05.000Z,27.60
2018-07-14T05:48:32.940Z,28.80
2018-07-14T05:51:00.586Z,28.00
2018-07-14T05:53:29.387Z,28.80
2018-07-14T05:55:57.322Z,31.40
2018-07-14T05:58:24.938Z,27.20
2018-07-14T06:00:52.598Z,31.20
2018-07-14T06:03:20.527Z,33.00
2018-07-14T06:05:48.139Z,32.40
2018-07-14T06:08:15.793Z,38.00
2018-07-14T06:10:43.775Z,31.60
2018-07-14T06:13:11.419Z,33.60
2018-07-14T06:15:39.064Z,30.20
2018-07-14T06:18:07.001Z,39.20
2018-07-14T06:20:34.667Z,30.80
2018-07-14T06:23:02.321Z,33.60
2018-07-14T06:25:30.256Z,33.40
2018-07-14T06:27:57.882Z,34.20
2018-07-14T06:30:25.547Z,31.80
2018-07-14T06:32:53.504Z,34.60
2018-07-14T06:35:21.142Z,26.80
2018-07-14T06:37:48.774Z,26.00
2018-07-14T06:40:17.370Z,33.80
2018-07-14T06:42:45.531Z,36.60
2018-07-14T06:45:13.144Z,34.60
2018-07-14T06:47:44.180Z,39.20
2018-07-14T06:50:11.817Z,35.40
2018-07-14T06:52:39.695Z,36.60
2018-07-14T06:55:07.643Z,37.40
2018-07-14T06:57:36.870Z,30.00
2018-07-14T07:00:04.535Z,33.80
2018-07-14T07:02:33.576Z,36.80
2018-07-14T07:05:01.236Z,35.20
2018-07-14T07:07:29.490Z,32.60
2018-07-14T07:09:57.401Z,34.20
2018-07-14T07:12:25.024Z,35.80
2018-07-14T07:14:52.646Z,36.20
2018-07-14T07:17:20.687Z,29.20
2018-07-14T07:19:48.330Z,34.40
2018-07-14T07:22:16.842Z,21.80
2018-07-14T07:24:45.440Z,31.60
2018-07-14T07:27:13.811Z,36.40
2018-07-14T07:29:41.482Z,31.40
2018-07-14T07:32:09.644Z,39.20
2018-07-14T07:34:37.348Z,29.00
2018-07-14T07:37:06.366Z,31.80
2018-07-14T07:39:34.307Z,31.20
2018-07-14T07:42:06.626Z,32.00
2018-07-14T07:44:36.250Z,29.40
2018-07-14T07:47:04.708Z,28.60
2018-07-14T07:49:32.326Z,32.60
2018-07-14T07:52:01.951Z,18.60
2018-07-14T07:54:29.899Z,34.60
2018-07-14T07:56:57.546Z,31.80
2018-07-14T07:59:26.797Z,28.80
2018-07-14T08:01:56.125Z,26.60
2018-07-14T08:04:24.603Z,34.00
2018-07-14T08:06:53.031Z,29.80
2018-07-14T08:09:20.895Z,31.20
2018-07-14T08:11:50.701Z,34.00
2018-07-14T08:14:18.299Z,31.60
2018-07-14T08:16:48.671Z,32.80
2018-07-14T08:19:18.020Z,32.80
2018-07-14T08:21:45.671Z,29.00
2018-07-14T08:24:13.620Z,29.60
2018-07-14T08:26:41.507Z,33.40
2018-07-14T08:29:10.142Z,31.40
2018-07-14T08:31:38.675Z,23.20
2018-07-14T08:34:06.546Z,29.00
2018-07-14T08:42:04.632Z,29.20
2018-07-14T08:44:32.454Z,32.20
2018-07-14T08:47:18.534Z,31.60
2018-07-14T08:49:46.439Z,28.00
2018-07-14T08:52:14.028Z,30.40
2018-07-14T08:54:42.258Z,28.80
2018-07-14T08:57:10.155Z,30.20
2018-07-14T08:59:38.312Z,31.00
2018-07-14T09:02:09.237Z,27.80
2018-07-14T09:04:37.098Z,27.00
2018-07-14T09:07:05.336Z,26.40
2018-07-14T09:09:34.019Z,26.60
2018-07-14T09:12:02.526Z,29.40
2018-07-14T09:14:30.325Z,29.20
2018-07-14T09:16:58.667Z,17.60
2018-07-14T09:19:31.481Z,25.80
2018-07-14T09:22:01.209Z,23.40
2018-07-14T09:24:29.507Z,25.00
2018-07-14T09:26:57.602Z,28.20
2018-07-14T09:29:26.334Z,25.00
2018-07-14T09:31:54.509Z,22.40
2018-07-14T09:34:26.116Z,26.20
2018-07-14T09:36:54.414Z,23.40
2018-07-14T09:39:24.285Z,29.80
2018-07-14T09:41:54.787Z,25.20
2018-07-14T09:44:22.372Z,27.20
2018-07-14T09:46:53.577Z,25.60
2018-07-14T09:49:21.430Z,27.00
2018-07-14T09:51:51.266Z,28.80
2018-07-14T09:54:18.927Z,22.00
2018-07-14T09:56:47.926Z,24.20
2018-07-14T09:59:17.455Z,27.20
2018-07-14T10:01:46.138Z,27.20
2018-07-14T10:04:16.902Z,28.00
2018-07-14T10:06:47.644Z,25.00
2018-07-14T10:09:16.126Z,27.20
2018-07-14T10:11:44.025Z,22.60
2018-07-14T10:14:11.651Z,24.00
2018-07-14T10:16:39.298Z,24.60
2018-07-14T10:19:07.179Z,25.80
2018-07-14T10:21:34.765Z,22.80
2018-07-14T10:24:04.050Z,21.20
2018-07-14T10:26:31.932Z,24.20
2018-07-14T10:28:59.551Z,26.60
2018-07-14T10:31:28.565Z,22.20
2018-07-14T10:33:57.115Z,23.60
2018-07-14T10:36:24.777Z,19.80
2018-07-14T10:38:52.397Z,22.60
2018-07-14T10:41:20.362Z,25.80
2018-07-14T10:43:48.795Z,23.40
2018-07-14T10:46:16.498Z,20.20
2018-07-14T10:48:44.390Z,20.80
2018-07-14T10:51:12.029Z,21.40
2018-07-14T10:53:39.639Z,21.20
2018-07-14T10:56:12.558Z,17.60
2018-07-14T10:58:40.507Z,20.00
2018-07-14T11:01:08.855Z,27.40
2018-07-14T11:03:36.783Z,21.00
2018-07-14T11:06:04.395Z,16.60
2018-07-14T11:08:32.809Z,21.80
2018-07-14T11:11:01.675Z,20.40
2018-07-14T11:13:29.266Z,17.20
2018-07-14T11:15:56.859Z,17.80
2018-07-14T11:18:25.667Z,19.80
2018-07-14T11:20:53.300Z,19.40
2018-07-14T11:23:20.958Z,18.60
2018-07-14T11:25:48.883Z,22.60
2018-07-14T11:28:16.553Z,19.60
2018-07-14T11:30:45.441Z,20.60
2018-07-14T11:33:13.341Z,21.60
2018-07-14T11:35:40.989Z,18.80
2018-07-14T11:38:08.676Z,17.80
2018-07-14T11:40:37.671Z,19.80
2018-07-14T11:43:05.295Z,18.60
2018-07-14T11:45:32.880Z,19.00
2018-07-14T11:48:00.865Z,20.60
2018-07-14T11:50:28.447Z,19.80
2018-07-14T11:52:57.679Z,18.20
2018-07-14T11:55:25.571Z,19.60
2018-07-14T11:57:53.193Z,17.20
2018-07-14T12:00:20.792Z,18.80
2018-07-14T12:02:49.025Z,18.80
2018-07-14T12:05:16.639Z,17.00
2018-07-14T12:07:44.299Z,15.00
2018-07-14T12:10:13.019Z,19.00
2018-07-14T12:12:40.693Z,19.80
2018-07-14T12:15:08.377Z,17.40
2018-07-14T12:17:36.284Z,16.20
2018-07-14T12:20:03.920Z,17.80
2018-07-14T12:22:32.222Z,15.60
2018-07-14T12:25:00.241Z,16.20
2018-07-14T12:27:27.860Z,17.20
2018-07-14T12:29:55.606Z,14.60
2018-07-14T12:32:23.709Z,20.40
2018-07-14T12:34:52.285Z,17.40
2018-07-14T12:37:19.859Z,16.00
2018-07-14T12:39:48.040Z,17.60
2018-07-14T12:42:15.635Z,17.20
2018-07-14T12:44:43.222Z,21.60
2018-07-14T12:47:11.147Z,20.60
2018-07-14T12:49:40.154Z,19.80
2018-07-14T12:52:08.379Z,18.00
2018-07-14T12:54:36.282Z,18.20
2018-07-14T12:57:03.888Z,22.40
2018-07-14T12:59:31.759Z,23.00
2018-07-14T13:02:02.215Z,27.00
2018-07-14T13:04:29.871Z,20.80
2018-07-14T13:06:57.476Z,24.00
2018-07-14T13:09:25.628Z,21.20
2018-07-14T13:11:54.099Z,22.80
2018-07-14T13:14:21.702Z,22.40
2018-07-14T13:16:49.577Z,21.20
2018-07-14T13:19:17.156Z,21.20
2018-07-14T13:21:45.322Z,21.80
2018-07-14T13:24:13.211Z,26.40
2018-07-14T13:26:40.827Z,23.20
2018-07-14T13:29:08.475Z,20.40
2018-07-14T13:31:38.419Z,19.80
2018-07-14T13:34:07.071Z,23.40
2018-07-14T13:36:35.506Z,23.60
2018-07-14T13:39:03.713Z,20.60
2018-07-14T13:41:31.349Z,19.60
2018-07-14T13:44:02.266Z,20.40
2018-07-14T13:46:31.179Z,20.60
2018-07-14T13:48:58.798Z,19.60
2018-07-14T13:51:26.636Z,21.20
2018-07-14T13:53:54.547Z,17.60
2018-07-14T13:56:24.276Z,21.40
2018-07-14T14:01:39.291Z,20.00
2018-07-14T14:43:12.475Z,16.80
2018-07-14T14:45:42.901Z,18.40
2018-07-14T14:48:11.371Z,18.20
2018-07-14T14:50:38.958Z,16.80
2018-07-14T14:53:06.571Z,16.00
2018-07-14T14:55:35.467Z,15.60
2018-07-14T14:58:03.992Z,14.00
2018-07-14T15:00:31.617Z,13.00
2018-07-14T15:03:00.466Z,15.80
2018-07-14T15:05:28.070Z,14.00
2018-07-14T15:07:55.681Z,16.40
2018-07-14T15:10:24.190Z,17.40
2018-07-14T15:12:54.374Z,14.00
2018-07-14T15:15:21.992Z,10.60
2018-07-14T15:17:52.100Z,15.00
2018-07-14T15:20:19.700Z,18.00
2018-07-14T15:22:47.308Z,15.00
2018-07-14T15:25:17.250Z,15.80
2018-07-14T15:27:45.828Z,14.80
2018-07-14T15:30:14.467Z,15.80
2018-07-14T15:32:42.736Z,20.00
2018-07-14T15:35:10.296Z,15.00
2018-07-14T15:37:39.246Z,15.60
2018-07-14T15:40:07.212Z,14.80
2018-07-14T15:42:36.830Z,14.00
2018-07-14T15:45:05.207Z,15.40
2018-07-14T15:47:33.095Z,13.00
2018-07-14T15:50:01.899Z,16.20
2018-07-14T15:52:30.576Z,12.60
2018-07-14T15:54:58.453Z,12.80
2018-07-14T15:57:26.056Z,14.40
2018-07-14T15:59:54.377Z,14.40
2018-07-14T16:02:24.449Z,14.80
2018-07-14T16:04:52.678Z,15.40
2018-07-14T16:07:20.317Z,13.80
2018-07-14T16:09:48.167Z,13.40
2018-07-14T16:12:17.106Z,15.00
2018-07-14T16:14:45.453Z,15.00
2018-07-14T16:17:13.439Z,15.00
2018-07-14T16:19:42.060Z,15.60
2018-07-14T16:22:09.679Z,13.40
2018-07-14T16:24:38.730Z,13.80
2018-07-14T16:27:09.381Z,13.20
2018-07-14T16:29:37.732Z,12.60
2018-07-14T16:32:06.902Z,13.40
2018-07-14T16:34:35.261Z,12.60
2018-07-14T16:37:02.930Z,11.00
2018-07-14T16:39:31.044Z,11.60
2018-07-14T16:41:59.422Z,16.20
2018-07-14T16:44:27.476Z,12.80
2018-07-14T16:46:56.278Z,15.00
2018-07-14T16:49:23.861Z,16.60
2018-07-14T16:51:51.453Z,14.60
2018-07-14T16:54:19.333Z,13.40
2018-07-14T16:56:47.885Z,12.40
2018-07-14T16:59:15.471Z,16.00
2018-07-14T17:01:43.336Z,9.60
2018-07-14T17:04:11.202Z,14.20
2018-07-14T17:06:39.741Z,14.20
2018-07-14T17:09:07.716Z,11.40
2018-07-14T17:11:35.347Z,12.20
2018-07-14T17:14:03.827Z,9.60
2018-07-14T17:16:32.011Z,11.20
2018-07-14T17:18:59.660Z,11.00
2018-07-14T17:21:28.801Z,11.20
2018-07-14T17:23:56.923Z,10.60
2018-07-14T17:26:25.208Z,14.00
2018-07-14T17:28:52.825Z,9.20
2018-07-14T17:31:22.482Z,13.20
2018-07-14T17:33:50.128Z,13.60
2018-07-14T17:36:18.510Z,12.00
2018-07-14T17:38:46.120Z,12.60
2018-07-14T17:41:14.731Z,11.80
2018-07-14T17:43:43.592Z,10.00
2018-07-14T17:46:11.254Z,8.60
2018-07-14T17:48:39.108Z,13.60
2018-07-14T17:51:09.261Z,15.40
2018-07-14T17:53:38.983Z,13.60
2018-07-14T17:56:06.760Z,10.60
2018-07-14T17:58:36.439Z,8.00
2018-07-14T18:01:04.134Z,11.20
2018-07-14T18:03:33.361Z,12.40
2018-07-14T18:06:01.696Z,12.20
2018-07-14T18:08:30.751Z,12.20
2018-07-14T18:10:59.455Z,9.00
2018-07-14T18:13:27.481Z,12.00
2018-07-14T18:15:55.310Z,10.20
2018-07-14T18:18:23.701Z,10.80
2018-07-14T18:20:53.710Z,11.00
2018-07-14T18:23:21.428Z,11.00
2018-07-14T18:25:49.762Z,12.00
2018-07-14T18:28:17.713Z,11.40
2018-07-14T18:30:46.539Z,9.40
2018-07-14T18:33:14.204Z,10.60
2018-07-14T18:35:43.460Z,11.20
2018-07-14T18:38:11.107Z,10.80
2018-07-14T18:40:39.274Z,10.40
2018-07-14T18:43:07.279Z,8.80
2018-07-14T18:45:39.835Z,9.60
2018-07-14T18:48:08.481Z,10.20
2018-07-14T18:50:37.839Z,9.00
2018-07-14T18:53:05.521Z,9.20
2018-07-14T18:55:33.633Z,11.00
2018-07-14T18:58:01.955Z,11.60
2018-07-14T19:00:29.715Z,9.80
2018-07-14T19:02:57.399Z,10.00
2018-07-14T19:05:28.694Z,10.20
2018-07-14T19:07:57.132Z,9.20
2018-07-14T19:10:28.596Z,9.00
2018-07-14T19:12:56.459Z,7.60
2018-07-14T19:15:25.099Z,10.60
2018-07-14T19:17:52.927Z,10.80
2018-07-14T19:20:23.501Z,13.60
2018-07-14T19:22:51.639Z,11.20
2018-07-14T19:25:19.579Z,10.40
2018-07-14T19:27:47.573Z,11.20
2018-07-14T19:30:19.426Z,10.60
2018-07-14T19:32:47.471Z,9.40
2018-07-14T19:35:15.438Z,12.00
2018-07-14T19:37:43.211Z,8.80
2018-07-14T19:40:12.196Z,12.60
2018-07-14T19:42:41.344Z,9.00
2018-07-14T19:45:12.301Z,12.00
2018-07-14T19:47:41.807Z,10.00
2018-07-14T19:50:11.452Z,10.00
2018-07-14T19:52:43.793Z,12.80
2018-07-14T19:55:12.503Z,10.80
2018-07-14T19:57:41.055Z,9.00
2018-07-14T20:00:10.807Z,10.60
2018-07-14T20:02:40.307Z,9.00
2018-07-14T20:05:09.248Z,9.00
2018-07-14T20:07:37.435Z,10.20
2018-07-14T20:10:05.643Z,7.60
2018-07-14T20:12:34.217Z,8.40
2018-07-14T20:15:02.891Z,10.80
2018-07-14T20:17:31.368Z,8.60
2018-07-14T20:20:00.511Z,11.20
2018-07-14T20:22:28.520Z,9.00
2018-07-14T20:24:59.391Z,11.20
2018-07-14T20:27:27.722Z,8.00
2018-07-14T20:29:56.323Z,8.00
2018-07-14T20:32:24.270Z,9.00
2018-07-14T20:34:53.046Z,9.60
2018-07-14T20:37:20.755Z,9.00
2018-07-14T20:39:48.983Z,11.20
2018-07-14T20:42:23.457Z,10.80
2018-07-14T20:44:52.555Z,11.40
2018-07-14T20:47:23.728Z,13.60
2018-07-14T20:49:53.454Z,10.20
2018-07-14T20:52:22.248Z,11.20
2018-07-14T20:54:53.119Z,10.80
2018-07-14T20:57:24.281Z,10.40
2018-07-14T20:59:53.562Z,10.20
2018-07-14T21:02:21.606Z,10.20
2018-07-14T21:04:51.456Z,12.00
2018-07-14T21:07:21.202Z,12.00
2018-07-14T21:09:49.082Z,10.40
2018-07-14T21:12:17.017Z,14.00
2018-07-14T21:14:44.917Z,10.00
2018-07-14T21:17:13.579Z,12.80
2018-07-14T21:19:43.039Z,10.00
2018-07-14T21:22:12.670Z,13.00
2018-07-14T21:24:40.500Z,12.40
2018-07-14T21:27:08.268Z,13.00
2018-07-14T21:29:50.475Z,12.40
2018-07-14T21:32:18.236Z,17.80
2018-07-14T21:34:46.331Z,13.20
2018-07-14T21:37:28.268Z,14.00
2018-07-14T21:39:57.303Z,16.40
2018-07-14T21:42:26.402Z,12.60
2018-07-14T21:44:55.079Z,10.80
2018-07-14T21:47:23.026Z,15.60
2018-07-14T21:49:50.649Z,11.40
2018-07-14T21:54:51.948Z,11.40
2018-07-14T21:57:20.325Z,12.00
2018-07-14T21:59:47.956Z,7.60
2018-07-14T22:02:16.615Z,14.20
2018-07-14T22:04:44.930Z,12.60
2018-07-14T22:07:12.539Z,11.40
2018-07-14T22:09:40.126Z,11.20
2018-07-14T22:12:08.256Z,6.80
2018-07-14T22:14:36.151Z,13.00
2018-07-14T22:17:04.552Z,14.80
2018-07-14T22:19:32.336Z,14.60
2018-07-14T22:22:01.230Z,13.60
2018-07-14T22:24:29.614Z,13.40
2018-07-14T22:26:57.826Z,21.40
2018-07-14T22:29:26.813Z,18.20
2018-07-14T22:31:55.430Z,17.80
2018-07-14T22:34:27.020Z,19.00
2018-07-14T22:36:54.954Z,16.40
2018-07-14T22:39:22.541Z,18.20
2018-07-14T22:41:54.447Z,16.80
2018-07-14T22:44:22.360Z,25.80
2018-07-14T22:46:49.950Z,28.80
2018-07-14T22:49:17.556Z,18.60
2018-07-14T22:51:45.501Z,21.40
2018-07-14T22:54:13.114Z,21.20
2018-07-14T22:56:41.412Z,20.20
2018-07-14T22:59:09.315Z,18.60
2018-07-14T23:01:38.140Z,18.20
2018-07-14T23:04:05.731Z,20.20
2018-07-14T23:06:33.627Z,18.40
2018-07-14T23:09:02.199Z,18.20
2018-07-14T23:11:29.777Z,16.80
2018-07-14T23:14:01.285Z,13.80
2018-07-14T23:16:28.854Z,18.40
2018-07-14T23:18:56.478Z,17.20
2018-07-14T23:21:24.323Z,15.60
2018-07-14T23:23:51.944Z,20.20
2018-07-14T23:26:19.550Z,15.40
2018-07-14T23:28:47.435Z,18.80
2018-07-14T23:31:15.022Z,17.60
2018-07-14T23:33:42.644Z,20.20
2018-07-14T23:36:10.507Z,19.00
2018-07-14T23:38:42.383Z,15.60
2018-07-14T23:41:10.000Z,19.00
2018-07-14T23:43:37.869Z,19.80
2018-07-14T23:46:05.445Z,21.80
2018-07-14T23:48:33.116Z,19.80
2018-07-14T23:51:01.243Z,19.20
2018-07-14T23:53:28.862Z,23.20
2018-07-14T23:55:56.438Z,19.00
2018-07-14T23:58:24.357Z,22.00
